sensor_id;sensor_type;location;lat;lon;timestamp;P1;durP1;ratioP1;P2;durP2;ratioP2
45254;SDS011;30989;52.078;21.014;2024-01-16T00:01:44;1.63;;;0.90;;
45254;SDS011;30989;52.078;21.014;2024-01-16T00:04:12;2.45;;;0.73;;
45254;SDS011;30989;52.078;21.014;2024-01-16T00:06:41;2.17;;;0.77;;
45254;SDS011;30989;52.078;21.014;2024-01-16T00:09:07;1.33;;;0.68;;
45254;SDS011;30989;52.078;21.014;2024-01-16T00:11:42;2.88;;;0.80;;
45254;SDS011;30989;52.078;21.014;2024-01-16T00:14:08;5.50;;;1.58;;
45254;SDS011;30989;52.078;21.014;2024-01-16T00:16:40;5.70;;;1.23;;
45254;SDS011;30989;52.078;21.014;2024-01-16T00:19:10;2.95;;;1.20;;
45254;SDS011;30989;52.078;21.014;2024-01-16T00:21:40;4.18;;;1.13;;
45254;SDS011;30989;52.078;21.014;2024-01-16T00:24:13;1.83;;;0.82;;
45254;SDS011;30989;52.078;21.014;2024-01-16T00:26:39;2.42;;;1.00;;
45254;SDS011;30989;52.078;21.014;2024-01-16T00:29:04;3.25;;;1.00;;
45254;SDS011;30989;52.078;21.014;2024-01-16T00:31:31;2.80;;;1.02;;
45254;SDS011;30989;52.078;21.014;2024-01-16T00:34:00;3.00;;;1.10;;
45254;SDS011;30989;52.078;21.014;2024-01-16T00:36:25;2.67;;;1.20;;
45254;SDS011;30989;52.078;21.014;2024-01-16T00:38:51;5.00;;;1.42;;
45254;SDS011;30989;52.078;21.014;2024-01-16T00:41:16;3.20;;;1.30;;
45254;SDS011;30989;52.078;21.014;2024-01-16T00:43:43;3.83;;;0.80;;
45254;SDS011;30989;52.078;21.014;2024-01-16T00:46:10;3.15;;;1.15;;
45254;SDS011;30989;52.078;21.014;2024-01-16T00:48:36;0.98;;;0.60;;
45254;SDS011;30989;52.078;21.014;2024-01-16T00:51:04;2.60;;;1.10;;
45254;SDS011;30989;52.078;21.014;2024-01-16T00:53:30;2.13;;;0.70;;
45254;SDS011;30989;52.078;21.014;2024-01-16T00:55:55;2.45;;;1.30;;
45254;SDS011;30989;52.078;21.014;2024-01-16T00:58:24;1.20;;;0.57;;
45254;SDS011;30989;52.078;21.014;2024-01-16T01:00:49;4.82;;;0.65;;
45254;SDS011;30989;52.078;21.014;2024-01-16T01:03:18;1.67;;;0.75;;
45254;SDS011;30989;52.078;21.014;2024-01-16T01:05:43;3.17;;;1.00;;
45254;SDS011;30989;52.078;21.014;2024-01-16T01:08:09;1.40;;;0.75;;
45254;SDS011;30989;52.078;21.014;2024-01-16T01:10:34;2.35;;;0.85;;
45254;SDS011;30989;52.078;21.014;2024-01-16T01:13:00;1.75;;;0.60;;
45254;SDS011;30989;52.078;21.014;2024-01-16T01:15:26;3.33;;;0.70;;
45254;SDS011;30989;52.078;21.014;2024-01-16T01:17:51;2.28;;;0.70;;
45254;SDS011;30989;52.078;21.014;2024-01-16T01:20:17;3.30;;;0.73;;
45254;SDS011;30989;52.078;21.014;2024-01-16T01:22:44;2.83;;;0.80;;
45254;SDS011;30989;52.078;21.014;2024-01-16T01:25:13;3.25;;;0.90;;
45254;SDS011;30989;52.078;21.014;2024-01-16T01:27:40;2.13;;;0.80;;
45254;SDS011;30989;52.078;21.014;2024-01-16T01:30:06;2.28;;;0.82;;
45254;SDS011;30989;52.078;21.014;2024-01-16T01:32:36;4.15;;;1.40;;
45254;SDS011;30989;52.078;21.014;2024-01-16T01:35:02;3.20;;;1.17;;
45254;SDS011;30989;52.078;21.014;2024-01-16T01:37:28;3.70;;;1.17;;
45254;SDS011;30989;52.078;21.014;2024-01-16T01:39:53;5.97;;;0.80;;
45254;SDS011;30989;52.078;21.014;2024-01-16T01:42:19;3.50;;;1.20;;
45254;SDS011;30989;52.078;21.014;2024-01-16T01:44:44;3.35;;;1.05;;
45254;SDS011;30989;52.078;21.014;2024-01-16T01:47:10;2.92;;;1.60;;
45254;SDS011;30989;52.078;21.014;2024-01-16T01:49:43;10.45;;;1.10;;
45254;SDS011;30989;52.078;21.014;2024-01-16T01:52:09;3.28;;;1.00;;
45254;SDS011;30989;52.078;21.014;2024-01-16T01:54:36;1.38;;;0.85;;
45254;SDS011;30989;52.078;21.014;2024-01-16T01:57:03;9.35;;;1.42;;
45254;SDS011;30989;52.078;21.014;2024-01-16T01:59:29;4.28;;;0.90;;
45254;SDS011;30989;52.078;21.014;2024-01-16T02:01:59;3.10;;;1.20;;
45254;SDS011;30989;52.078;21.014;2024-01-16T02:04:25;2.30;;;1.20;;
45254;SDS011;30989;52.078;21.014;2024-01-16T02:06:53;3.42;;;0.77;;
45254;SDS011;30989;52.078;21.014;2024-01-16T02:09:19;1.52;;;0.73;;
45254;SDS011;30989;52.078;21.014;2024-01-16T02:11:45;4.47;;;0.90;;
45254;SDS011;30989;52.078;21.014;2024-01-16T02:14:13;4.70;;;1.55;;
45254;SDS011;30989;52.078;21.014;2024-01-16T02:16:40;3.58;;;1.40;;
45254;SDS011;30989;52.078;21.014;2024-01-16T02:19:07;2.53;;;0.82;;
45254;SDS011;30989;52.078;21.014;2024-01-16T02:21:36;2.05;;;0.90;;
45254;SDS011;30989;52.078;21.014;2024-01-16T02:24:06;2.20;;;1.00;;
45254;SDS011;30989;52.078;21.014;2024-01-16T02:26:34;3.42;;;1.02;;
45254;SDS011;30989;52.078;21.014;2024-01-16T02:29:03;6.25;;;1.75;;
45254;SDS011;30989;52.078;21.014;2024-01-16T02:31:32;2.87;;;0.47;;
45254;SDS011;30989;52.078;21.014;2024-01-16T02:33:57;4.22;;;1.42;;
45254;SDS011;30989;52.078;21.014;2024-01-16T02:36:23;3.15;;;0.85;;
45254;SDS011;30989;52.078;21.014;2024-01-16T02:38:49;1.20;;;0.57;;
45254;SDS011;30989;52.078;21.014;2024-01-16T02:41:15;3.15;;;0.82;;
45254;SDS011;30989;52.078;21.014;2024-01-16T02:43:41;2.15;;;0.60;;
45254;SDS011;30989;52.078;21.014;2024-01-16T02:46:07;3.13;;;1.20;;
45254;SDS011;30989;52.078;21.014;2024-01-16T02:48:34;2.03;;;1.10;;
45254;SDS011;30989;52.078;21.014;2024-01-16T02:51:00;1.90;;;0.75;;
45254;SDS011;30989;52.078;21.014;2024-01-16T02:53:25;1.55;;;1.02;;
45254;SDS011;30989;52.078;21.014;2024-01-16T02:55:52;1.83;;;0.98;;
45254;SDS011;30989;52.078;21.014;2024-01-16T02:58:18;1.88;;;0.77;;
45254;SDS011;30989;52.078;21.014;2024-01-16T03:00:43;1.35;;;0.70;;
45254;SDS011;30989;52.078;21.014;2024-01-16T03:03:08;2.72;;;1.10;;
45254;SDS011;30989;52.078;21.014;2024-01-16T03:05:35;1.30;;;0.60;;
45254;SDS011;30989;52.078;21.014;2024-01-16T03:08:01;3.90;;;1.30;;
45254;SDS011;30989;52.078;21.014;2024-01-16T03:10:26;1.88;;;0.77;;
45254;SDS011;30989;52.078;21.014;2024-01-16T03:12:52;2.85;;;1.08;;
45254;SDS011;30989;52.078;21.014;2024-01-16T03:15:19;3.38;;;1.08;;
45254;SDS011;30989;52.078;21.014;2024-01-16T03:17:45;2.97;;;0.98;;
45254;SDS011;30989;52.078;21.014;2024-01-16T03:20:11;1.50;;;0.70;;
45254;SDS011;30989;52.078;21.014;2024-01-16T03:22:42;3.88;;;0.80;;
45254;SDS011;30989;52.078;21.014;2024-01-16T03:25:09;2.53;;;0.98;;
45254;SDS011;30989;52.078;21.014;2024-01-16T03:27:36;5.18;;;1.00;;
45254;SDS011;30989;52.078;21.014;2024-01-16T03:30:02;1.75;;;0.80;;
45254;SDS011;30989;52.078;21.014;2024-01-16T03:32:27;1.98;;;0.82;;
45254;SDS011;30989;52.078;21.014;2024-01-16T03:34:53;2.38;;;1.10;;
45254;SDS011;30989;52.078;21.014;2024-01-16T03:37:18;3.42;;;1.48;;
45254;SDS011;30989;52.078;21.014;2024-01-16T03:39:44;3.90;;;1.20;;
45254;SDS011;30989;52.078;21.014;2024-01-16T03:42:10;3.05;;;1.10;;
45254;SDS011;30989;52.078;21.014;2024-01-16T03:44:38;1.98;;;1.13;;
45254;SDS011;30989;52.078;21.014;2024-01-16T03:47:04;5.28;;;1.20;;
45254;SDS011;30989;52.078;21.014;2024-01-16T03:49:30;2.60;;;1.00;;
45254;SDS011;30989;52.078;21.014;2024-01-16T03:51:55;2.75;;;1.23;;
45254;SDS011;30989;52.078;21.014;2024-01-16T03:54:20;4.60;;;1.40;;
45254;SDS011;30989;52.078;21.014;2024-01-16T03:56:46;4.57;;;2.10;;
45254;SDS011;30989;52.078;21.014;2024-01-16T03:59:12;2.60;;;1.13;;
45254;SDS011;30989;52.078;21.014;2024-01-16T04:01:37;4.40;;;1.25;;
45254;SDS011;30989;52.078;21.014;2024-01-16T04:04:03;3.85;;;1.17;;
45254;SDS011;30989;52.078;21.014;2024-01-16T04:06:31;4.15;;;1.10;;
45254;SDS011;30989;52.078;21.014;2024-01-16T04:08:57;2.95;;;1.33;;
45254;SDS011;30989;52.078;21.014;2024-01-16T04:11:23;5.22;;;1.38;;
45254;SDS011;30989;52.078;21.014;2024-01-16T04:13:48;3.35;;;1.25;;
45254;SDS011;30989;52.078;21.014;2024-01-16T04:16:15;2.53;;;0.90;;
45254;SDS011;30989;52.078;21.014;2024-01-16T04:18:41;3.55;;;1.25;;
45254;SDS011;30989;52.078;21.014;2024-01-16T04:21:07;3.58;;;1.35;;
45254;SDS011;30989;52.078;21.014;2024-01-16T04:23:33;6.53;;;1.20;;
45254;SDS011;30989;52.078;21.014;2024-01-16T04:25:58;3.75;;;1.00;;
45254;SDS011;30989;52.078;21.014;2024-01-16T04:28:24;3.60;;;1.40;;
45254;SDS011;30989;52.078;21.014;2024-01-16T04:30:50;3.08;;;1.20;;
45254;SDS011;30989;52.078;21.014;2024-01-16T04:33:16;3.38;;;1.08;;
45254;SDS011;30989;52.078;21.014;2024-01-16T04:35:41;2.35;;;1.02;;
45254;SDS011;30989;52.078;21.014;2024-01-16T04:38:07;3.92;;;1.50;;
45254;SDS011;30989;52.078;21.014;2024-01-16T04:40:32;4.88;;;1.60;;
45254;SDS011;30989;52.078;21.014;2024-01-16T04:42:58;6.55;;;1.42;;
45254;SDS011;30989;52.078;21.014;2024-01-16T04:45:24;2.53;;;1.10;;
45254;SDS011;30989;52.078;21.014;2024-01-16T04:47:50;5.35;;;1.15;;
45254;SDS011;30989;52.078;21.014;2024-01-16T04:50:15;2.55;;;1.00;;
45254;SDS011;30989;52.078;21.014;2024-01-16T04:52:41;5.30;;;1.23;;
45254;SDS011;30989;52.078;21.014;2024-01-16T04:55:06;3.92;;;1.40;;
45254;SDS011;30989;52.078;21.014;2024-01-16T04:57:32;6.75;;;3.08;;
45254;SDS011;30989;52.078;21.014;2024-01-16T04:59:58;6.15;;;1.30;;
45254;SDS011;30989;52.078;21.014;2024-01-16T05:02:24;3.15;;;1.38;;
45254;SDS011;30989;52.078;21.014;2024-01-16T05:04:49;3.13;;;0.95;;
45254;SDS011;30989;52.078;21.014;2024-01-16T05:07:17;3.22;;;1.52;;
45254;SDS011;30989;52.078;21.014;2024-01-16T05:09:46;4.75;;;1.40;;
45254;SDS011;30989;52.078;21.014;2024-01-16T05:12:12;5.93;;;1.10;;
45254;SDS011;30989;52.078;21.014;2024-01-16T05:14:37;6.85;;;1.33;;
45254;SDS011;30989;52.078;21.014;2024-01-16T05:17:03;4.60;;;1.40;;
45254;SDS011;30989;52.078;21.014;2024-01-16T05:19:28;3.20;;;1.30;;
45254;SDS011;30989;52.078;21.014;2024-01-16T05:21:54;3.45;;;1.20;;
45254;SDS011;30989;52.078;21.014;2024-01-16T05:24:19;2.92;;;1.20;;
45254;SDS011;30989;52.078;21.014;2024-01-16T05:26:45;5.63;;;1.85;;
45254;SDS011;30989;52.078;21.014;2024-01-16T05:29:10;3.70;;;1.15;;
45254;SDS011;30989;52.078;21.014;2024-01-16T05:31:40;4.20;;;1.80;;
45254;SDS011;30989;52.078;21.014;2024-01-16T05:34:07;6.57;;;1.10;;
45254;SDS011;30989;52.078;21.014;2024-01-16T05:36:33;2.35;;;1.00;;
45254;SDS011;30989;52.078;21.014;2024-01-16T05:38:58;5.00;;;1.20;;
45254;SDS011;30989;52.078;21.014;2024-01-16T05:41:24;3.70;;;1.70;;
45254;SDS011;30989;52.078;21.014;2024-01-16T05:43:52;2.25;;;1.00;;
45254;SDS011;30989;52.078;21.014;2024-01-16T05:46:17;2.13;;;1.00;;
45254;SDS011;30989;52.078;21.014;2024-01-16T05:48:43;4.18;;;1.33;;
45254;SDS011;30989;52.078;21.014;2024-01-16T05:51:08;6.10;;;1.65;;
45254;SDS011;30989;52.078;21.014;2024-01-16T05:53:34;3.83;;;1.63;;
45254;SDS011;30989;52.078;21.014;2024-01-16T05:55:59;7.18;;;1.88;;
45254;SDS011;30989;52.078;21.014;2024-01-16T05:58:26;3.72;;;1.00;;
45254;SDS011;30989;52.078;21.014;2024-01-16T06:00:51;3.28;;;1.10;;
45254;SDS011;30989;52.078;21.014;2024-01-16T06:03:18;4.22;;;1.75;;
45254;SDS011;30989;52.078;21.014;2024-01-16T06:05:46;7.00;;;2.50;;
45254;SDS011;30989;52.078;21.014;2024-01-16T06:08:11;4.07;;;1.35;;
45254;SDS011;30989;52.078;21.014;2024-01-16T06:10:37;4.28;;;1.65;;
45254;SDS011;30989;52.078;21.014;2024-01-16T06:13:05;4.18;;;1.80;;
45254;SDS011;30989;52.078;21.014;2024-01-16T06:15:30;3.75;;;1.85;;
45254;SDS011;30989;52.078;21.014;2024-01-16T06:20:42;5.63;;;1.70;;
45254;SDS011;30989;52.078;21.014;2024-01-16T06:23:08;5.57;;;1.92;;
45254;SDS011;30989;52.078;21.014;2024-01-16T06:25:33;6.32;;;2.50;;
45254;SDS011;30989;52.078;21.014;2024-01-16T06:27:59;4.15;;;1.52;;
45254;SDS011;30989;52.078;21.014;2024-01-16T06:30:24;6.63;;;1.80;;
45254;SDS011;30989;52.078;21.014;2024-01-16T06:32:50;3.58;;;1.38;;
45254;SDS011;30989;52.078;21.014;2024-01-16T06:35:16;7.45;;;2.00;;
45254;SDS011;30989;52.078;21.014;2024-01-16T06:37:42;6.05;;;2.25;;
45254;SDS011;30989;52.078;21.014;2024-01-16T06:40:08;6.40;;;2.15;;
45254;SDS011;30989;52.078;21.014;2024-01-16T06:42:34;5.63;;;2.22;;
45254;SDS011;30989;52.078;21.014;2024-01-16T06:45:01;7.38;;;2.13;;
45254;SDS011;30989;52.078;21.014;2024-01-16T06:47:27;5.88;;;1.92;;
45254;SDS011;30989;52.078;21.014;2024-01-16T06:49:52;5.88;;;2.22;;
45254;SDS011;30989;52.078;21.014;2024-01-16T06:52:18;6.90;;;1.50;;
45254;SDS011;30989;52.078;21.014;2024-01-16T06:54:44;8.07;;;2.03;;
45254;SDS011;30989;52.078;21.014;2024-01-16T06:57:10;11.23;;;2.72;;
45254;SDS011;30989;52.078;21.014;2024-01-16T06:59:36;5.90;;;1.80;;
45254;SDS011;30989;52.078;21.014;2024-01-16T07:02:01;4.03;;;1.88;;
45254;SDS011;30989;52.078;21.014;2024-01-16T07:04:28;4.88;;;2.10;;
45254;SDS011;30989;52.078;21.014;2024-01-16T07:06:56;5.32;;;1.80;;
45254;SDS011;30989;52.078;21.014;2024-01-16T07:09:25;8.75;;;2.22;;
45254;SDS011;30989;52.078;21.014;2024-01-16T07:11:52;6.25;;;1.95;;
45254;SDS011;30989;52.078;21.014;2024-01-16T07:14:18;5.95;;;1.73;;
45254;SDS011;30989;52.078;21.014;2024-01-16T07:16:44;6.78;;;2.50;;
45254;SDS011;30989;52.078;21.014;2024-01-16T07:19:10;5.28;;;2.92;;
45254;SDS011;30989;52.078;21.014;2024-01-16T07:21:37;4.63;;;1.77;;
45254;SDS011;30989;52.078;21.014;2024-01-16T07:24:02;5.35;;;2.00;;
45254;SDS011;30989;52.078;21.014;2024-01-16T07:26:28;6.60;;;2.03;;
45254;SDS011;30989;52.078;21.014;2024-01-16T07:28:54;6.75;;;1.48;;
45254;SDS011;30989;52.078;21.014;2024-01-16T07:31:19;8.43;;;2.33;;
45254;SDS011;30989;52.078;21.014;2024-01-16T07:33:44;8.68;;;2.33;;
45254;SDS011;30989;52.078;21.014;2024-01-16T07:36:13;7.70;;;2.15;;
45254;SDS011;30989;52.078;21.014;2024-01-16T07:38:39;6.22;;;2.13;;
45254;SDS011;30989;52.078;21.014;2024-01-16T07:41:04;5.75;;;1.92;;
45254;SDS011;30989;52.078;21.014;2024-01-16T07:43:30;10.10;;;2.47;;
45254;SDS011;30989;52.078;21.014;2024-01-16T07:45:56;6.10;;;2.33;;
45254;SDS011;30989;52.078;21.014;2024-01-16T07:48:22;8.63;;;2.25;;
45254;SDS011;30989;52.078;21.014;2024-01-16T07:50:50;7.68;;;2.10;;
45254;SDS011;30989;52.078;21.014;2024-01-16T07:53:16;9.40;;;2.88;;
45254;SDS011;30989;52.078;21.014;2024-01-16T07:55:42;8.32;;;2.70;;
45254;SDS011;30989;52.078;21.014;2024-01-16T07:58:08;8.60;;;2.97;;
45254;SDS011;30989;52.078;21.014;2024-01-16T08:00:38;5.47;;;2.05;;
45254;SDS011;30989;52.078;21.014;2024-01-16T08:03:07;8.45;;;2.55;;
45254;SDS011;30989;52.078;21.014;2024-01-16T08:05:33;5.45;;;2.13;;
45254;SDS011;30989;52.078;21.014;2024-01-16T08:07:59;5.35;;;2.35;;
45254;SDS011;30989;52.078;21.014;2024-01-16T08:10:25;6.57;;;2.30;;
45254;SDS011;30989;52.078;21.014;2024-01-16T08:12:50;6.15;;;1.98;;
45254;SDS011;30989;52.078;21.014;2024-01-16T08:15:16;5.75;;;2.85;;
45254;SDS011;30989;52.078;21.014;2024-01-16T08:17:41;6.63;;;2.20;;
45254;SDS011;30989;52.078;21.014;2024-01-16T08:20:07;4.90;;;1.90;;
45254;SDS011;30989;52.078;21.014;2024-01-16T08:22:38;8.45;;;2.95;;
45254;SDS011;30989;52.078;21.014;2024-01-16T08:25:04;5.47;;;2.22;;
45254;SDS011;30989;52.078;21.014;2024-01-16T08:27:30;6.65;;;2.63;;
45254;SDS011;30989;52.078;21.014;2024-01-16T08:29:56;4.88;;;2.28;;
45254;SDS011;30989;52.078;21.014;2024-01-16T08:32:21;7.10;;;2.00;;
45254;SDS011;30989;52.078;21.014;2024-01-16T08:34:47;7.18;;;2.70;;
45254;SDS011;30989;52.078;21.014;2024-01-16T08:37:12;6.68;;;2.42;;
45254;SDS011;30989;52.078;21.014;2024-01-16T08:39:37;5.95;;;2.45;;
45254;SDS011;30989;52.078;21.014;2024-01-16T08:42:03;6.05;;;2.53;;
45254;SDS011;30989;52.078;21.014;2024-01-16T08:44:29;9.63;;;2.67;;
45254;SDS011;30989;52.078;21.014;2024-01-16T08:46:55;9.25;;;2.10;;
45254;SDS011;30989;52.078;21.014;2024-01-16T08:49:20;7.10;;;1.85;;
45254;SDS011;30989;52.078;21.014;2024-01-16T08:51:46;5.88;;;2.05;;
45254;SDS011;30989;52.078;21.014;2024-01-16T08:54:14;6.78;;;1.98;;
45254;SDS011;30989;52.078;21.014;2024-01-16T08:56:39;4.93;;;1.50;;
45254;SDS011;30989;52.078;21.014;2024-01-16T08:59:04;8.10;;;1.63;;
45254;SDS011;30989;52.078;21.014;2024-01-16T09:01:30;7.28;;;2.08;;
45254;SDS011;30989;52.078;21.014;2024-01-16T09:03:55;5.88;;;1.23;;
45254;SDS011;30989;52.078;21.014;2024-01-16T09:06:21;4.60;;;1.50;;
45254;SDS011;30989;52.078;21.014;2024-01-16T09:08:46;3.53;;;1.10;;
45254;SDS011;30989;52.078;21.014;2024-01-16T09:11:12;5.75;;;1.65;;
45254;SDS011;30989;52.078;21.014;2024-01-16T09:13:37;8.20;;;2.00;;
45254;SDS011;30989;52.078;21.014;2024-01-16T09:16:03;5.07;;;2.40;;
45254;SDS011;30989;52.078;21.014;2024-01-16T09:18:29;6.72;;;1.48;;
45254;SDS011;30989;52.078;21.014;2024-01-16T09:20:54;5.63;;;1.30;;
45254;SDS011;30989;52.078;21.014;2024-01-16T09:23:20;2.53;;;1.15;;
45254;SDS011;30989;52.078;21.014;2024-01-16T09:25:45;4.70;;;1.50;;
45254;SDS011;30989;52.078;21.014;2024-01-16T09:28:11;4.15;;;1.58;;
45254;SDS011;30989;52.078;21.014;2024-01-16T09:30:37;7.88;;;1.40;;
45254;SDS011;30989;52.078;21.014;2024-01-16T09:33:03;7.25;;;2.00;;
45254;SDS011;30989;52.078;21.014;2024-01-16T09:35:31;5.65;;;1.98;;
45254;SDS011;30989;52.078;21.014;2024-01-16T09:37:58;4.22;;;1.27;;
45254;SDS011;30989;52.078;21.014;2024-01-16T09:40:24;4.20;;;1.42;;
45254;SDS011;30989;52.078;21.014;2024-01-16T09:42:51;5.93;;;1.65;;
45254;SDS011;30989;52.078;21.014;2024-01-16T09:45:19;4.28;;;1.77;;
45254;SDS011;30989;52.078;21.014;2024-01-16T09:47:47;5.13;;;1.50;;
45254;SDS011;30989;52.078;21.014;2024-01-16T09:50:15;2.63;;;1.33;;
45254;SDS011;30989;52.078;21.014;2024-01-16T09:52:42;6.97;;;1.88;;
45254;SDS011;30989;52.078;21.014;2024-01-16T09:55:08;6.07;;;1.67;;
45254;SDS011;30989;52.078;21.014;2024-01-16T09:57:34;5.45;;;1.58;;
45254;SDS011;30989;52.078;21.014;2024-01-16T10:00:05;5.40;;;2.13;;
45254;SDS011;30989;52.078;21.014;2024-01-16T10:02:38;4.32;;;1.73;;
45254;SDS011;30989;52.078;21.014;2024-01-16T10:05:06;10.25;;;2.15;;
45254;SDS011;30989;52.078;21.014;2024-01-16T10:07:33;6.32;;;1.70;;
45254;SDS011;30989;52.078;21.014;2024-01-16T10:10:02;10.07;;;1.70;;
45254;SDS011;30989;52.078;21.014;2024-01-16T10:12:28;4.55;;;1.20;;
45254;SDS011;30989;52.078;21.014;2024-01-16T10:14:59;6.10;;;1.60;;
45254;SDS011;30989;52.078;21.014;2024-01-16T10:17:35;6.05;;;1.45;;
45254;SDS011;30989;52.078;21.014;2024-01-16T10:20:02;9.35;;;1.80;;
45254;SDS011;30989;52.078;21.014;2024-01-16T10:22:33;7.78;;;1.40;;
45254;SDS011;30989;52.078;21.014;2024-01-16T10:25:08;8.32;;;1.60;;
45254;SDS011;30989;52.078;21.014;2024-01-16T10:27:35;4.57;;;1.65;;
45254;SDS011;30989;52.078;21.014;2024-01-16T10:30:02;3.58;;;1.38;;
45254;SDS011;30989;52.078;21.014;2024-01-16T10:35:13;4.35;;;1.35;;
45254;SDS011;30989;52.078;21.014;2024-01-16T10:37:46;3.17;;;1.05;;
45254;SDS011;30989;52.078;21.014;2024-01-16T10:40:17;7.32;;;1.60;;
45254;SDS011;30989;52.078;21.014;2024-01-16T10:42:56;3.63;;;1.48;;
45254;SDS011;30989;52.078;21.014;2024-01-16T10:45:23;4.97;;;1.30;;
45254;SDS011;30989;52.078;21.014;2024-01-16T10:47:49;4.90;;;2.15;;
45254;SDS011;30989;52.078;21.014;2024-01-16T10:50:26;3.47;;;1.70;;
45254;SDS011;30989;52.078;21.014;2024-01-16T10:52:51;5.72;;;1.40;;
45254;SDS011;30989;52.078;21.014;2024-01-16T10:55:23;3.90;;;1.08;;
45254;SDS011;30989;52.078;21.014;2024-01-16T10:57:50;3.83;;;1.35;;
45254;SDS011;30989;52.078;21.014;2024-01-16T11:00:22;5.75;;;1.55;;
45254;SDS011;30989;52.078;21.014;2024-01-16T11:02:54;5.40;;;1.80;;
45254;SDS011;30989;52.078;21.014;2024-01-16T11:05:25;5.55;;;1.60;;
45254;SDS011;30989;52.078;21.014;2024-01-16T11:07:55;6.30;;;1.85;;
45254;SDS011;30989;52.078;21.014;2024-01-16T11:10:21;4.80;;;1.60;;
45254;SDS011;30989;52.078;21.014;2024-01-16T11:12:49;7.07;;;1.95;;
45254;SDS011;30989;52.078;21.014;2024-01-16T11:15:16;5.35;;;1.55;;
45254;SDS011;30989;52.078;21.014;2024-01-16T11:17:44;4.63;;;1.55;;
45254;SDS011;30989;52.078;21.014;2024-01-16T11:20:09;7.15;;;1.90;;
45254;SDS011;30989;52.078;21.014;2024-01-16T11:22:38;6.38;;;1.40;;
45254;SDS011;30989;52.078;21.014;2024-01-16T11:25:08;3.00;;;1.50;;
45254;SDS011;30989;52.078;21.014;2024-01-16T11:27:35;4.40;;;1.80;;
45254;SDS011;30989;52.078;21.014;2024-01-16T11:30:02;3.97;;;1.48;;
45254;SDS011;30989;52.078;21.014;2024-01-16T11:32:39;6.03;;;1.92;;
45254;SDS011;30989;52.078;21.014;2024-01-16T11:35:08;6.72;;;1.77;;
45254;SDS011;30989;52.078;21.014;2024-01-16T11:37:34;6.22;;;1.50;;
45254;SDS011;30989;52.078;21.014;2024-01-16T11:40:20;4.30;;;1.88;;
45254;SDS011;30989;52.078;21.014;2024-01-16T11:42:49;8.13;;;1.77;;
45254;SDS011;30989;52.078;21.014;2024-01-16T11:50:34;5.70;;;1.50;;
45254;SDS011;30989;52.078;21.014;2024-01-16T11:53:00;5.47;;;1.83;;
45254;SDS011;30989;52.078;21.014;2024-01-16T11:55:29;3.92;;;1.60;;
45254;SDS011;30989;52.078;21.014;2024-01-16T11:58:21;5.68;;;1.35;;
45254;SDS011;30989;52.078;21.014;2024-01-16T12:00:50;3.88;;;1.25;;
45254;SDS011;30989;52.078;21.014;2024-01-16T12:03:20;5.20;;;1.90;;
45254;SDS011;30989;52.078;21.014;2024-01-16T12:05:58;4.15;;;1.45;;
45254;SDS011;30989;52.078;21.014;2024-01-16T12:08:25;4.05;;;1.38;;
45254;SDS011;30989;52.078;21.014;2024-01-16T12:10:50;2.58;;;1.23;;
45254;SDS011;30989;52.078;21.014;2024-01-16T12:13:16;5.05;;;1.58;;
45254;SDS011;30989;52.078;21.014;2024-01-16T12:15:42;6.88;;;1.77;;
45254;SDS011;30989;52.078;21.014;2024-01-16T12:18:08;5.15;;;1.55;;
45254;SDS011;30989;52.078;21.014;2024-01-16T12:20:34;5.10;;;1.80;;
45254;SDS011;30989;52.078;21.014;2024-01-16T12:23:04;3.78;;;1.38;;
45254;SDS011;30989;52.078;21.014;2024-01-16T12:25:34;10.80;;;3.80;;
45254;SDS011;30989;52.078;21.014;2024-01-16T12:28:01;8.65;;;2.25;;
45254;SDS011;30989;52.078;21.014;2024-01-16T12:30:35;7.50;;;2.13;;
45254;SDS011;30989;52.078;21.014;2024-01-16T12:33:05;7.13;;;1.70;;
45254;SDS011;30989;52.078;21.014;2024-01-16T12:35:35;5.65;;;1.73;;
45254;SDS011;30989;52.078;21.014;2024-01-16T12:38:04;3.83;;;1.40;;
45254;SDS011;30989;52.078;21.014;2024-01-16T12:40:31;5.63;;;1.88;;
45254;SDS011;30989;52.078;21.014;2024-01-16T12:42:58;5.75;;;2.20;;
45254;SDS011;30989;52.078;21.014;2024-01-16T12:45:24;4.05;;;1.58;;
45254;SDS011;30989;52.078;21.014;2024-01-16T12:47:50;4.25;;;1.20;;
45254;SDS011;30989;52.078;21.014;2024-01-16T12:50:20;5.18;;;1.70;;
45254;SDS011;30989;52.078;21.014;2024-01-16T12:52:48;5.35;;;1.40;;
45254;SDS011;30989;52.078;21.014;2024-01-16T12:55:14;6.68;;;1.77;;
45254;SDS011;30989;52.078;21.014;2024-01-16T12:57:41;5.03;;;1.85;;
45254;SDS011;30989;52.078;21.014;2024-01-16T13:00:22;3.80;;;1.50;;
45254;SDS011;30989;52.078;21.014;2024-01-16T13:02:54;6.15;;;1.70;;
45254;SDS011;30989;52.078;21.014;2024-01-16T13:05:23;6.10;;;1.80;;
45254;SDS011;30989;52.078;21.014;2024-01-16T13:07:59;6.70;;;2.25;;
45254;SDS011;30989;52.078;21.014;2024-01-16T13:10:28;5.10;;;1.85;;
45254;SDS011;30989;52.078;21.014;2024-01-16T13:15:57;5.70;;;1.55;;
45254;SDS011;30989;52.078;21.014;2024-01-16T13:18:24;4.13;;;1.70;;
45254;SDS011;30989;52.078;21.014;2024-01-16T13:20:51;5.20;;;1.85;;
45254;SDS011;30989;52.078;21.014;2024-01-16T13:23:17;7.18;;;2.00;;
45254;SDS011;30989;52.078;21.014;2024-01-16T13:25:43;6.68;;;1.92;;
45254;SDS011;30989;52.078;21.014;2024-01-16T13:28:15;2.70;;;1.40;;
45254;SDS011;30989;52.078;21.014;2024-01-16T13:30:42;5.47;;;1.90;;
45254;SDS011;30989;52.078;21.014;2024-01-16T13:33:09;5.35;;;1.88;;
45254;SDS011;30989;52.078;21.014;2024-01-16T13:35:35;5.53;;;1.85;;
45254;SDS011;30989;52.078;21.014;2024-01-16T13:38:04;4.72;;;1.60;;
45254;SDS011;30989;52.078;21.014;2024-01-16T13:40:30;6.60;;;2.03;;
45254;SDS011;30989;52.078;21.014;2024-01-16T13:42:56;5.35;;;1.58;;
45254;SDS011;30989;52.078;21.014;2024-01-16T13:45:21;7.22;;;2.17;;
45254;SDS011;30989;52.078;21.014;2024-01-16T13:47:48;4.70;;;1.45;;
45254;SDS011;30989;52.078;21.014;2024-01-16T13:50:13;4.50;;;1.55;;
45254;SDS011;30989;52.078;21.014;2024-01-16T13:52:40;7.85;;;1.40;;
45254;SDS011;30989;52.078;21.014;2024-01-16T13:55:06;4.43;;;1.38;;
45254;SDS011;30989;52.078;21.014;2024-01-16T13:57:32;7.18;;;1.73;;
45254;SDS011;30989;52.078;21.014;2024-01-16T14:00:00;5.78;;;2.55;;
45254;SDS011;30989;52.078;21.014;2024-01-16T14:02:37;4.63;;;1.48;;
45254;SDS011;30989;52.078;21.014;2024-01-16T14:05:03;4.85;;;1.92;;
45254;SDS011;30989;52.078;21.014;2024-01-16T14:07:33;5.30;;;2.03;;
45254;SDS011;30989;52.078;21.014;2024-01-16T14:09:59;5.63;;;1.98;;
45254;SDS011;30989;52.078;21.014;2024-01-16T14:12:24;10.35;;;2.17;;
45254;SDS011;30989;52.078;21.014;2024-01-16T14:14:50;3.40;;;1.38;;
45254;SDS011;30989;52.078;21.014;2024-01-16T14:17:16;5.68;;;2.03;;
45254;SDS011;30989;52.078;21.014;2024-01-16T14:19:41;5.60;;;1.90;;
45254;SDS011;30989;52.078;21.014;2024-01-16T14:22:07;7.03;;;2.17;;
45254;SDS011;30989;52.078;21.014;2024-01-16T14:24:33;5.10;;;1.85;;
45254;SDS011;30989;52.078;21.014;2024-01-16T14:26:59;6.68;;;2.53;;
45254;SDS011;30989;52.078;21.014;2024-01-16T14:29:24;13.40;;;2.30;;
45254;SDS011;30989;52.078;21.014;2024-01-16T14:31:52;6.60;;;2.05;;
45254;SDS011;30989;52.078;21.014;2024-01-16T14:34:20;5.22;;;1.75;;
45254;SDS011;30989;52.078;21.014;2024-01-16T14:36:46;7.68;;;2.10;;
45254;SDS011;30989;52.078;21.014;2024-01-16T14:39:14;5.13;;;1.90;;
45254;SDS011;30989;52.078;21.014;2024-01-16T14:41:42;6.05;;;1.85;;
45254;SDS011;30989;52.078;21.014;2024-01-16T14:44:08;4.82;;;1.83;;
45254;SDS011;30989;52.078;21.014;2024-01-16T14:46:34;5.20;;;1.90;;